createdAt,value
2018-10-18T11:28:08.851Z,1013.92
2018-10-18T11:29:08.819Z,1013.88
2018-10-18T11:30:08.852Z,1013.93
2018-10-18T11:31:08.788Z,1013.89
2018-10-18T11:32:08.820Z,1013.87
2018-10-18T11:33:08.785Z,1013.92
2018-10-18T11:34:16.285Z,1013.92
2018-10-18T11:35:08.714Z,1013.89
2018-10-18T11:36:08.788Z,1013.89
2018-10-18T11:37:08.685Z,1013.86
2018-10-18T11:38:08.727Z,1013.87
2018-10-18T11:39:08.652Z,1013.90
2018-10-18T11:40:08.633Z,1013.88
2018-10-18T11:41:08.633Z,1013.86
2018-10-18T11:42:08.634Z,1013.93
2018-10-18T11:43:08.590Z,1013.86
2018-10-18T11:44:08.656Z,1013.87
2018-10-18T11:45:08.559Z,1013.86
2018-10-18T11:46:08.562Z,1013.86
2018-10-18T11:47:08.529Z,1013.81
2018-10-18T11:48:08.569Z,1013.84
2018-10-18T11:49:08.498Z,1013.82
2018-10-18T11:50:08.507Z,1013.84
2018-10-18T11:51:08.494Z,1013.80
2018-10-18T11:52:08.587Z,1013.81
2018-10-18T11:53:08.441Z,1013.81
2018-10-18T11:54:08.437Z,1013.77
2018-10-18T11:55:08.414Z,1013.79
2018-10-18T11:56:08.555Z,1013.83
2018-10-18T11:57:08.381Z,1013.80
2018-10-18T11:58:08.369Z,1013.80
2018-10-18T11:59:08.403Z,1013.77
2018-10-18T12:00:08.347Z,1013.79
2018-10-18T12:01:08.353Z,1013.80
2018-10-18T12:02:08.414Z,1013.80
2018-10-18T12:03:08.303Z,1013.82
2018-10-18T12:04:08.288Z,1013.83
2018-10-18T12:05:08.284Z,1013.83
2018-10-18T12:06:08.254Z,1013.83
2018-10-18T12:07:08.261Z,1013.83
2018-10-18T12:08:08.302Z,1013.82
2018-10-18T12:09:08.226Z,1013.80
2018-10-18T12:10:08.201Z,1013.85
2018-10-18T12:11:08.255Z,1013.83
2018-10-18T12:12:08.175Z,1013.78
2018-10-18T12:13:08.182Z,1013.81
2018-10-18T12:14:08.227Z,1013.80
2018-10-18T12:15:08.133Z,1013.84
2018-10-18T12:16:08.121Z,1013.80
2018-10-18T12:17:08.166Z,1013.81
2018-10-18T12:18:08.126Z,1013.76
2018-10-18T12:19:08.150Z,1013.82
2018-10-18T12:20:08.130Z,1013.85
2018-10-18T12:21:08.051Z,1013.83
2018-10-18T12:22:08.045Z,1013.82
2018-10-18T12:23:08.077Z,1013.82
2018-10-18T12:24:08.026Z,1013.80
2018-10-18T12:25:08.003Z,1013.80
2018-10-18T12:26:07.990Z,1013.80
2018-10-18T12:27:07.970Z,1013.76
2018-10-18T12:28:07.958Z,1013.76
2018-10-18T12:29:07.995Z,1013.79
2018-10-18T12:30:07.941Z,1013.77
2018-10-18T12:31:07.920Z,1013.77
2018-10-18T12:32:07.960Z,1013.76
2018-10-18T12:33:07.891Z,1013.78
2018-10-18T12:34:07.890Z,1013.79
2018-10-18T12:35:07.897Z,1013.80
2018-10-18T12:36:07.848Z,1013.76
2018-10-18T12:37:07.835Z,1013.74
2018-10-18T12:38:07.873Z,1013.77
2018-10-18T12:39:07.812Z,1013.77
2018-10-18T12:40:07.852Z,1013.75
2018-10-18T12:41:07.948Z,1013.78
2018-10-18T12:42:07.859Z,1013.76
2018-10-18T12:43:07.755Z,1013.76
2018-10-18T12:44:07.854Z,1013.77
2018-10-18T12:45:07.738Z,1013.75
2018-10-18T12:46:07.713Z,1013.77
2018-10-18T12:47:07.696Z,1013.77
2018-10-18T12:48:07.778Z,1013.73
2018-10-18T12:49:07.669Z,1013.76
2018-10-18T12:50:07.737Z,1013.75
2018-10-18T12:51:07.640Z,1013.77
2018-10-18T12:52:07.627Z,1013.73
2018-10-18T12:53:07.617Z,1013.72
2018-10-18T12:54:07.653Z,1013.71
2018-10-18T12:55:07.592Z,1013.72
2018-10-18T12:56:07.674Z,1013.69
2018-10-18T12:57:07.561Z,1013.68
2018-10-18T12:58:07.543Z,1013.70
2018-10-18T12:59:07.532Z,1013.66
2018-10-18T13:00:07.609Z,1013.67
2018-10-18T13:01:07.520Z,1013.69
2018-10-18T13:02:07.547Z,1013.65
2018-10-18T13:03:07.488Z,1013.67
2018-10-18T13:04:07.458Z,1013.64
2018-10-18T13:05:07.454Z,1013.63
2018-10-18T13:06:07.463Z,1013.59
2018-10-18T13:07:07.420Z,1013.57
2018-10-18T13:08:07.481Z,1013.62
2018-10-18T13:09:07.411Z,1013.62
2018-10-18T13:10:07.390Z,1013.60
2018-10-18T13:11:07.407Z,1013.60
2018-10-18T13:12:07.372Z,1013.59
2018-10-18T13:13:07.337Z,1013.62
2018-10-18T13:14:07.363Z,1013.65
2018-10-18T13:15:07.307Z,1013.59
2018-10-18T13:16:07.297Z,1013.62
2018-10-18T13:17:07.292Z,1013.61
2018-10-18T13:18:07.364Z,1013.59
2018-10-18T13:19:07.252Z,1013.59
2018-10-18T13:20:07.269Z,1013.58
2018-10-18T13:21:07.223Z,1013.60
2018-10-18T13:22:07.229Z,1013.59
2018-10-18T13:23:07.199Z,1013.57
2018-10-18T13:24:07.280Z,1013.56
2018-10-18T13:25:07.228Z,1013.58
2018-10-18T13:26:07.228Z,1013.55
2018-10-18T13:27:07.162Z,1013.54
2018-10-18T13:28:07.128Z,1013.54
2018-10-18T13:29:07.119Z,1013.53
2018-10-18T13:30:07.143Z,1013.54
2018-10-18T13:31:07.088Z,1013.55
2018-10-18T13:32:07.141Z,1013.55
2018-10-18T13:33:07.080Z,1013.57
2018-10-18T13:34:07.203Z,1013.60
2018-10-18T13:35:07.038Z,1013.62
2018-10-18T13:36:07.061Z,1013.59
2018-10-18T13:37:07.010Z,1013.64
2018-10-18T13:38:07.032Z,1013.64
2018-10-18T13:39:07.012Z,1013.67
2018-10-18T13:40:06.974Z,1013.67
2018-10-18T13:41:06.957Z,1013.69
2018-10-18T13:42:07.041Z,1013.78
2018-10-18T13:43:06.950Z,1013.80
2018-10-18T13:44:06.954Z,1013.82
2018-10-18T13:45:06.903Z,1013.80
2018-10-18T13:46:06.894Z,1013.60
2018-10-18T13:47:06.876Z,1013.67
2018-10-18T13:48:06.921Z,1013.60
2018-10-18T13:49:06.864Z,1013.66
2018-10-18T13:50:06.907Z,1013.65
2018-10-18T13:51:06.827Z,1013.72
2018-10-18T13:52:06.814Z,1013.65
2018-10-18T13:53:06.800Z,1013.60
2018-10-18T13:54:06.873Z,1013.60
2018-10-18T13:55:06.778Z,1013.63
2018-10-18T13:56:06.783Z,1013.60
2018-10-18T13:57:06.746Z,1013.58
2018-10-18T13:58:06.733Z,1013.56
2018-10-18T13:59:06.837Z,1013.55
2018-10-18T14:00:06.743Z,1013.58
2018-10-18T14:01:06.701Z,1013.59
2018-10-18T14:02:06.698Z,1013.57
2018-10-18T14:03:06.668Z,1013.55
2018-10-18T14:04:06.675Z,1013.55
2018-10-18T14:05:06.693Z,1013.53
2018-10-18T14:06:06.628Z,1013.52
2018-10-18T14:07:06.613Z,1013.51
2018-10-18T14:08:06.701Z,1013.49
2018-10-18T14:09:06.609Z,1013.50
2018-10-18T14:10:06.579Z,1013.51
2018-10-18T14:11:06.641Z,1013.50
2018-10-18T14:12:06.547Z,1013.49
2018-10-18T14:13:06.530Z,1013.47
2018-10-18T14:14:06.629Z,1013.46
2018-10-18T14:15:06.502Z,1013.47
2018-10-18T14:16:06.491Z,1013.46
2018-10-18T14:17:06.498Z,1013.45
2018-10-18T14:18:06.459Z,1013.50
2018-10-18T14:19:06.473Z,1013.45
2018-10-18T14:20:06.492Z,1013.43
2018-10-18T14:21:06.416Z,1013.47
2018-10-18T14:22:06.404Z,1013.43
2018-10-18T14:23:06.411Z,1013.41
2018-10-18T14:24:06.374Z,1013.45
2018-10-18T14:25:06.381Z,1013.44
2018-10-18T14:26:06.411Z,1013.45
2018-10-18T14:27:06.331Z,1013.42
2018-10-18T14:28:06.320Z,1013.41
2018-10-18T14:29:06.324Z,1013.40
2018-10-18T14:30:06.352Z,1013.45
2018-10-18T14:31:06.292Z,1013.44
2018-10-18T14:32:06.275Z,1013.49
2018-10-18T14:33:06.249Z,1013.43
2018-10-18T14:34:06.232Z,1013.42
2018-10-18T14:35:06.290Z,1013.43
2018-10-18T14:36:06.218Z,1013.43
2018-10-18T14:37:06.187Z,1013.43
2018-10-18T14:38:06.321Z,1013.46
2018-10-18T14:39:06.167Z,1013.45
2018-10-18T14:40:06.146Z,1013.45
2018-10-18T14:41:06.162Z,1013.46
2018-10-18T14:42:06.115Z,1013.45
2018-10-18T14:43:06.102Z,1013.47
2018-10-18T14:44:06.099Z,1013.53
2018-10-18T14:45:06.198Z,1013.51
2018-10-18T14:46:06.071Z,1013.49
2018-10-18T14:47:06.144Z,1013.47
2018-10-18T14:48:06.030Z,1013.45
2018-10-18T14:49:06.014Z,1013.47
2018-10-18T14:50:06.017Z,1013.47
2018-10-18T14:51:06.011Z,1013.45
2018-10-18T14:52:06.013Z,1013.47
2018-10-18T14:53:05.956Z,1013.47
2018-10-18T14:54:05.935Z,1013.46
2018-10-18T14:55:05.932Z,1013.44
2018-10-18T14:56:05.993Z,1013.45
2018-10-18T14:57:05.902Z,1013.47
2018-10-18T14:58:05.879Z,1013.48
2018-10-18T14:59:05.897Z,1013.49
2018-10-18T15:00:05.847Z,1013.46
2018-10-18T15:01:05.847Z,1013.47
2018-10-18T15:02:05.867Z,1013.50
2018-10-18T15:03:05.805Z,1013.50
2018-10-18T15:04:05.791Z,1013.52
2018-10-18T15:05:05.863Z,1013.50
2018-10-18T15:06:05.774Z,1013.50
2018-10-18T15:07:05.744Z,1013.49
2018-10-18T15:08:05.788Z,1013.52
2018-10-18T15:09:05.713Z,1013.49
2018-10-18T15:10:05.700Z,1013.48
2018-10-18T15:11:05.734Z,1013.50
2018-10-18T15:12:05.673Z,1013.54
2018-10-18T15:13:05.655Z,1013.55
2018-10-18T15:14:05.723Z,1013.51
2018-10-18T15:15:05.623Z,1013.54
2018-10-18T15:16:05.618Z,1013.55
2018-10-18T15:17:05.646Z,1013.56
2018-10-18T15:18:05.624Z,1013.57
2018-10-18T15:19:05.563Z,1013.55
2018-10-18T15:20:05.618Z,1013.55
2018-10-18T15:21:05.529Z,1013.53
2018-10-18T15:22:05.517Z,1013.53
2018-10-18T15:23:05.509Z,1013.51
2018-10-18T15:24:05.484Z,1013.50
2018-10-18T15:25:05.492Z,1013.52
2018-10-18T15:26:05.537Z,1013.43
2018-10-18T15:27:05.592Z,1013.43
2018-10-18T15:28:05.425Z,1013.42
2018-10-18T15:29:05.475Z,1013.44
2018-10-18T15:30:05.392Z,1013.41
2018-10-18T15:31:05.393Z,1013.41
2018-10-18T15:32:05.496Z,1013.40
2018-10-18T15:33:05.448Z,1013.41
2018-10-18T15:34:05.334Z,1013.43
2018-10-18T15:35:05.426Z,1013.41
2018-10-18T15:36:05.426Z,1013.39
2018-10-18T15:37:06.068Z,1013.39
2018-10-18T15:38:05.331Z,1013.40
2018-10-18T15:39:05.349Z,1013.37
2018-10-18T15:40:05.238Z,1013.35
2018-10-18T15:41:05.284Z,1013.37
2018-10-18T15:42:05.232Z,1013.36
2018-10-18T15:43:05.187Z,1013.37
2018-10-18T15:44:05.225Z,1013.38
2018-10-18T15:45:05.208Z,1013.36
2018-10-18T15:46:05.144Z,1013.38
2018-10-18T15:47:05.211Z,1013.34
2018-10-18T15:48:05.112Z,1013.35
2018-10-18T15:49:05.100Z,1013.35
2018-10-18T15:50:05.084Z,1013.33
2018-10-18T15:51:05.100Z,1013.34
2018-10-18T15:52:05.072Z,1013.36
2018-10-18T15:53:05.075Z,1013.35
2018-10-18T15:54:05.099Z,1013.33
2018-10-18T15:55:05.005Z,1013.34
2018-10-18T15:56:04.988Z,1013.37
2018-10-18T15:57:05.007Z,1013.34
2018-10-18T15:58:04.973Z,1013.36
2018-10-18T15:59:05.023Z,1013.35
2018-10-18T16:00:04.979Z,1013.36
2018-10-18T16:01:04.911Z,1013.35
2018-10-18T16:02:04.899Z,1013.38
2018-10-18T16:03:04.951Z,1013.37
2018-10-18T16:04:04.866Z,1013.35
2018-10-18T16:05:04.887Z,1013.40
2018-10-18T16:06:04.879Z,1013.40
2018-10-18T16:07:04.863Z,1013.41
2018-10-18T16:08:04.822Z,1013.41
2018-10-18T16:09:04.785Z,1013.41
2018-10-18T16:10:04.774Z,1013.41
2018-10-18T16:11:04.830Z,1013.44
2018-10-18T16:12:04.740Z,1013.44
2018-10-18T16:13:04.729Z,1013.47
2018-10-18T16:14:04.783Z,1013.49
2018-10-18T16:15:04.694Z,1013.50
2018-10-18T16:16:04.676Z,1013.48
2018-10-18T16:17:04.727Z,1013.53
2018-10-18T16:18:04.656Z,1013.52
2018-10-18T16:19:04.656Z,1013.53
2018-10-18T16:20:04.645Z,1013.56
2018-10-18T16:21:04.618Z,1013.52
2018-10-18T16:22:04.582Z,1013.53
2018-10-18T16:23:04.639Z,1013.52
2018-10-18T16:24:04.584Z,1013.52
2018-10-18T16:25:04.543Z,1013.60
2018-10-18T16:26:04.644Z,1013.61
2018-10-18T16:27:04.507Z,1013.60
2018-10-18T16:28:04.486Z,1013.58
2018-10-18T16:29:04.532Z,1013.60
2018-10-18T16:30:04.472Z,1013.64
2018-10-18T16:31:04.445Z,1013.65
2018-10-18T16:32:04.471Z,1013.63
2018-10-18T16:33:04.416Z,1013.64
2018-10-18T16:34:04.397Z,1013.65
2018-10-18T16:35:04.460Z,1013.67
2018-10-18T16:36:04.361Z,1013.65
2018-10-18T16:37:04.345Z,1013.66
2018-10-18T16:38:04.383Z,1013.66
2018-10-18T16:39:04.316Z,1013.66
2018-10-18T16:40:04.317Z,1013.65
2018-10-18T16:41:04.418Z,1013.62
2018-10-18T16:42:04.380Z,1013.64
2018-10-18T16:43:04.252Z,1013.65
2018-10-18T16:44:04.244Z,1013.66
2018-10-18T16:45:04.241Z,1013.66
2018-10-18T16:46:04.234Z,1013.69
2018-10-18T16:47:04.192Z,1013.65
2018-10-18T16:48:04.175Z,1013.68
2018-10-18T16:49:04.155Z,1013.68
2018-10-18T16:50:04.194Z,1013.68
2018-10-18T16:51:04.140Z,1013.68
2018-10-18T16:52:04.166Z,1013.68
2018-10-18T16:53:04.095Z,1013.69
2018-10-18T16:54:04.102Z,1013.70
2018-10-18T16:55:04.060Z,1013.71
2018-10-18T16:56:04.105Z,1013.69
2018-10-18T16:57:04.027Z,1013.73
2018-10-18T16:58:04.052Z,1013.73
2018-10-18T16:59:04.003Z,1013.74
2018-10-18T17:00:03.999Z,1013.76
2018-10-18T17:01:04.000Z,1013.71
2018-10-18T17:02:04.016Z,1013.77
2018-10-18T17:03:03.934Z,1013.79
2018-10-18T17:04:03.942Z,1013.77
2018-10-18T17:05:03.905Z,1013.80
2018-10-18T17:06:03.962Z,1013.81
2018-10-18T17:07:03.885Z,1013.80
2018-10-18T17:08:03.885Z,1013.82
2018-10-18T17:09:03.836Z,1013.82
2018-10-18T17:10:03.908Z,1013.86
2018-10-18T17:11:03.806Z,1013.85
2018-10-18T17:12:03.866Z,1013.86
2018-10-18T17:13:03.769Z,1013.84
2018-10-18T17:14:03.816Z,1013.85
2018-10-18T17:15:03.740Z,1013.84
2018-10-18T17:16:03.797Z,1013.87
2018-10-18T17:17:03.724Z,1013.86
2018-10-18T17:18:03.806Z,1013.87
2018-10-18T17:19:03.679Z,1013.88
2018-10-18T17:20:03.718Z,1013.91
2018-10-18T17:21:03.679Z,1013.92
2018-10-18T17:22:03.644Z,1013.91
2018-10-18T17:23:03.620Z,1013.87
2018-10-18T17:24:03.609Z,1013.92
2018-10-18T17:25:03.585Z,1013.90
2018-10-18T17:26:03.587Z,1013.94
2018-10-18T17:27:03.616Z,1013.96
2018-10-18T17:28:03.546Z,1013.92
2018-10-18T17:29:03.513Z,1013.94
2018-10-18T17:30:03.567Z,1013.91
2018-10-18T17:31:03.478Z,1013.90
